Time;durP1;ratioP1;P1;durP2;ratioP2;P2;SDS_P1;SDS_P2;PMS_P1;PMS_P2;Temp;Humidity;BMP_temperature;BMP_pressure;BME280_temperature;BME280_humidity;BME280_pressure;Samples;Min_cycle;Max_cycle;Signal;HPM_P1;HPM_P2
2022/05/28 04:01:06;;;;;;;9.23;1.50;;;9.60;99.90;;;;;;6252464;22;20240;-79
2022/05/28 04:03:31;;;;;;;14.00;2.28;;;9.60;99.90;;;;;;6224269;22;20019;-79
2022/05/28 04:05:57;;;;;;;14.55;1.70;;;9.60;99.90;;;;;;6249130;22;20012;-78
2022/05/28 04:08:23;;;;;;;19.02;2.08;;;9.60;99.90;;;;;;6278985;22;20011;-78
2022/05/28 04:10:49;;;;;;;13.80;2.20;;;9.60;99.90;;;;;;6258288;22;20065;-79
2022/05/28 04:13:15;;;;;;;11.68;2.20;;;9.60;99.90;;;;;;6309670;22;20010;-79
2022/05/28 04:15:40;;;;;;;9.20;1.83;;;9.60;99.90;;;;;;6282248;22;20011;-79
2022/05/28 04:18:07;;;;;;;11.55;1.90;;;9.60;99.90;;;;;;6309787;22;20015;-78
2022/05/28 04:20:34;;;;;;;13.88;1.83;;;9.70;99.90;;;;;;6310414;22;20011;-75
2022/05/28 04:23:00;;;;;;;9.30;1.92;;;9.70;99.90;;;;;;6311353;22;20015;-77
2022/05/28 04:25:26;;;;;;;10.77;1.50;;;9.80;99.90;;;;;;6284049;22;20019;-75
2022/05/28 04:27:52;;;;;;;12.40;3.03;;;9.90;99.90;;;;;;6284524;22;20027;-75
2022/05/28 04:30:17;;;;;;;14.07;2.10;;;9.90;99.90;;;;;;6283489;22;20007;-77
2022/05/28 04:32:43;;;;;;;8.82;1.65;;;10.00;99.90;;;;;;6284487;22;20337;-76
2022/05/28 04:35:09;;;;;;;8.77;1.65;;;10.10;99.90;;;;;;6309485;22;20011;-78
2022/05/28 04:37:35;;;;;;;14.93;2.03;;;10.20;99.90;;;;;;6281660;22;20022;-78
2022/05/28 04:40:00;;;;;;;11.90;1.63;;;10.20;99.90;;;;;;6281626;22;20011;-78
2022/05/28 04:42:26;;;;;;;11.35;1.80;;;10.30;99.90;;;;;;6281346;22;20118;-78
2022/05/28 04:44:52;;;;;;;9.23;1.98;;;10.40;99.90;;;;;;6282164;22;20307;-78
2022/05/28 04:47:17;;;;;;;10.95;1.85;;;10.40;99.90;;;;;;6281893;22;20149;-79
2022/05/28 04:49:43;;;;;;;12.85;1.83;;;10.50;99.90;;;;;;6281544;22;20007;-77
2022/05/28 04:52:08;;;;;;;12.50;1.90;;;10.50;99.90;;;;;;6309484;22;20015;-78
2022/05/28 04:54:34;;;;;;;17.98;2.25;;;10.50;99.90;;;;;;6281328;22;20109;-78
2022/05/28 04:57:00;;;;;;;7.88;1.80;;;10.60;99.90;;;;;;6281430;22;20373;-79
2022/05/28 04:59:25;;;;;;;14.93;2.22;;;10.70;99.90;;;;;;6281322;22;20050;-80
2022/05/28 05:01:51;;;;;;;11.88;1.85;;;10.70;99.90;;;;;;6276008;22;20011;-79
2022/05/28 05:04:17;;;;;;;11.77;1.85;;;10.80;99.90;;;;;;6277647;22;20453;-78
2022/05/28 05:06:42;;;;;;;7.05;1.52;;;10.80;99.90;;;;;;6276122;22;20087;-79
2022/05/28 05:09:08;;;;;;;14.63;2.20;;;10.80;99.90;;;;;;6276127;22;20008;-78
2022/05/28 05:11:33;;;;;;;17.80;2.15;;;10.80;99.90;;;;;;6276081;22;20016;-79
2022/05/28 05:13:59;;;;;;;13.23;2.10;;;10.80;99.90;;;;;;6277672;22;20327;-78
2022/05/28 05:16:24;;;;;;;9.65;2.03;;;10.80;99.90;;;;;;6276021;22;20342;-76
2022/05/28 05:18:50;;;;;;;11.38;2.13;;;10.80;99.90;;;;;;6275467;22;20051;-79
2022/05/28 05:21:16;;;;;;;15.82;2.60;;;10.80;99.90;;;;;;6275998;22;20027;-78
2022/05/28 05:23:42;;;;;;;13.05;2.53;;;10.90;99.90;;;;;;6277488;22;20011;-79
2022/05/28 05:26:13;;;;;;;13.77;2.22;;;10.90;99.90;;;;;;6275958;22;20425;-79
2022/05/28 05:28:39;;;;;;;14.52;2.35;;;10.90;99.90;;;;;;6275933;22;20019;-78
2022/05/28 05:31:04;;;;;;;9.48;2.17;;;10.90;99.90;;;;;;6277694;22;20008;-78
2022/05/28 05:33:30;;;;;;;13.05;2.55;;;10.90;99.90;;;;;;6277797;22;20425;-79
2022/05/28 05:35:56;;;;;;;10.02;1.92;;;10.90;99.90;;;;;;6249972;22;20020;-79
2022/05/28 05:38:21;;;;;;;11.23;1.80;;;10.90;99.90;;;;;;6277699;22;20326;-78
2022/05/28 05:40:51;;;;;;;12.63;2.33;;;10.90;99.90;;;;;;6277582;22;20069;-77
2022/05/28 05:43:17;;;;;;;9.02;2.45;;;10.90;99.90;;;;;;6279826;22;20018;-79
2022/05/28 05:45:50;;;;;;;11.52;2.30;;;11.00;99.90;;;;;;6250672;22;20086;-79
2022/05/28 05:48:15;;;;;;;8.93;1.75;;;11.00;99.90;;;;;;6277291;22;20016;-78
2022/05/28 05:50:41;;;;;;;14.77;2.08;;;11.00;99.90;;;;;;6275532;22;20380;-78
2022/05/28 05:53:08;;;;;;;15.15;2.33;;;11.00;99.90;;;;;;6275694;22;20012;-80
2022/05/28 05:55:33;;;;;;;10.73;1.90;;;11.00;99.90;;;;;;6277770;22;20114;-78
2022/05/28 05:57:59;;;;;;;17.00;2.50;;;11.00;99.90;;;;;;6275802;22;20012;-80
2022/05/28 06:00:25;;;;;;;13.90;2.75;;;11.00;99.90;;;;;;6277196;22;20023;-78
2022/05/28 06:02:50;;;;;;;15.77;2.50;;;11.00;99.90;;;;;;6309165;22;20011;-77
2022/05/28 06:05:16;;;;;;;10.02;2.00;;;11.00;99.90;;;;;;6280506;22;20089;-79
2022/05/28 06:07:42;;;;;;;13.02;2.05;;;11.10;99.90;;;;;;6280708;22;20015;-77
2022/05/28 06:10:10;;;;;;;10.02;2.47;;;11.10;99.90;;;;;;6308528;22;20056;-77
2022/05/28 06:12:36;;;;;;;14.50;3.10;;;11.10;99.90;;;;;;6308264;22;20011;-77
2022/05/28 06:15:01;;;;;;;15.30;1.88;;;11.10;99.90;;;;;;6308424;22;20011;-77
2022/05/28 06:17:27;;;;;;;10.38;2.25;;;11.10;99.90;;;;;;6280497;22;20018;-78
2022/05/28 06:19:52;;;;;;;13.63;2.22;;;11.20;99.90;;;;;;6307956;22;20003;-77
2022/05/28 06:22:18;;;;;;;8.75;2.03;;;11.20;99.90;;;;;;6280514;22;20023;-79
2022/05/28 06:24:43;;;;;;;13.02;2.22;;;11.30;99.90;;;;;;6281068;22;20013;-77
2022/05/28 06:27:09;;;;;;;8.75;2.28;;;11.40;99.90;;;;;;6308168;22;20007;-77
2022/05/28 06:29:35;;;;;;;12.85;2.10;;;11.50;99.90;;;;;;6280462;22;20314;-79
2022/05/28 06:32:00;;;;;;;11.45;2.45;;;11.70;99.90;;;;;;6280459;22;20007;-79
2022/05/28 06:34:26;;;;;;;9.27;2.15;;;11.70;99.90;;;;;;6280418;22;20030;-79
2022/05/28 06:36:53;;;;;;;11.93;2.55;;;11.80;99.90;;;;;;6255092;22;20054;-80
2022/05/28 06:39:19;;;;;;;17.08;2.80;;;11.90;99.90;;;;;;6280531;22;20019;-80
2022/05/28 06:41:44;;;;;;;15.05;2.75;;;11.90;99.90;;;;;;6307715;22;20333;-77
2022/05/28 06:44:10;;;;;;;16.98;2.28;;;12.00;99.90;;;;;;6254876;22;20015;-78
2022/05/28 06:46:35;;;;;;;11.65;2.50;;;12.00;99.90;;;;;;6254946;22;20019;-80
2022/05/28 06:49:01;;;;;;;10.73;2.38;;;12.00;99.90;;;;;;6280260;22;20043;-78
2022/05/28 06:51:27;;;;;;;18.25;3.17;;;12.00;99.90;;;;;;6280312;22;20046;-78
2022/05/28 06:53:52;;;;;;;9.13;2.20;;;12.00;99.90;;;;;;6308090;22;20011;-77
2022/05/28 06:56:19;;;;;;;16.00;2.80;;;12.00;99.90;;;;;;6280394;22;20015;-77
2022/05/28 06:58:46;;;;;;;14.60;2.65;;;11.90;99.90;;;;;;6307601;22;20452;-78
2022/05/28 07:01:13;;;;;;;10.35;1.70;;;11.90;99.90;;;;;;6280657;22;20340;-80
2022/05/28 07:03:40;;;;;;;12.68;1.92;;;11.90;99.90;;;;;;6280214;22;20011;-80
2022/05/28 07:06:06;;;;;;;12.80;2.15;;;11.90;99.90;;;;;;6307461;22;20433;-79
2022/05/28 07:08:32;;;;;;;15.77;2.20;;;12.00;99.90;;;;;;6280167;22;20104;-78
2022/05/28 07:11:00;;;;;;;9.88;2.28;;;12.20;99.90;;;;;;6280373;22;20011;-79
2022/05/28 07:13:27;;;;;;;15.02;2.35;;;12.30;99.90;;;;;;6280340;22;20015;-78
2022/05/28 07:15:53;;;;;;;13.98;1.92;;;12.40;99.90;;;;;;6280186;22;20023;-79
2022/05/28 07:18:20;;;;;;;12.07;2.20;;;12.40;99.90;;;;;;6280783;22;20018;-79
2022/05/28 07:20:46;;;;;;;13.95;2.10;;;12.40;99.90;;;;;;6280183;22;20022;-77
2022/05/28 07:23:20;;;;;;;12.25;2.33;;;12.40;99.90;;;;;;6280267;22;20011;-78
2022/05/28 07:25:46;;;;;;;9.95;2.13;;;12.40;99.90;;;;;;6280117;22;20026;-79
2022/05/28 07:28:25;;;;;;;12.60;1.98;;;12.40;99.90;;;;;;6280845;22;20054;-78
2022/05/28 07:30:56;;;;;;;15.13;2.72;;;12.30;99.90;;;;;;6280095;22;20039;-79
2022/05/28 07:33:25;;;;;;;11.02;1.80;;;12.50;99.90;;;;;;6280394;22;20041;-79
2022/05/28 07:35:51;;;;;;;12.45;2.10;;;12.50;99.90;;;;;;6280017;22;20083;-79
2022/05/28 07:38:16;;;;;;;14.00;2.28;;;12.60;99.90;;;;;;6307995;22;20318;-79
2022/05/28 07:40:42;;;;;;;9.48;1.90;;;12.60;99.90;;;;;;6279542;22;20066;-78
2022/05/28 07:43:08;;;;;;;10.45;2.35;;;12.70;99.90;;;;;;6309947;22;20019;-81
2022/05/28 07:45:40;;;;;;;10.75;2.50;;;12.80;99.90;;;;;;6282013;22;20073;-80
2022/05/28 07:48:06;;;;;;;10.07;2.15;;;12.80;99.90;;;;;;6309934;22;20047;-81
2022/05/28 07:50:32;;;;;;;16.95;2.42;;;12.90;99.90;;;;;;6310274;22;20012;-84
2022/05/28 07:52:59;;;;;;;18.25;2.88;;;12.90;99.90;;;;;;6283165;22;20072;-79
2022/05/28 07:55:26;;;;;;;16.48;2.70;;;13.00;99.90;;;;;;6282348;22;20015;-78
2022/05/28 07:57:51;;;;;;;10.25;2.38;;;13.10;99.90;;;;;;6282638;22;20046;-78
2022/05/28 08:00:17;;;;;;;12.27;2.55;;;13.20;99.90;;;;;;6281920;22;20015;-79
2022/05/28 08:02:43;;;;;;;9.27;1.90;;;13.20;99.90;;;;;;6282897;22;20011;-83
2022/05/28 08:05:09;;;;;;;15.48;2.50;;;13.10;99.90;;;;;;6282101;22;20112;-77
2022/05/28 08:07:35;;;;;;;12.65;2.15;;;13.10;99.90;;;;;;6281926;22;20015;-77
2022/05/28 08:10:01;;;;;;;15.73;2.33;;;13.20;99.90;;;;;;6309314;22;20314;-79
2022/05/28 08:12:27;;;;;;;10.65;1.90;;;13.20;99.90;;;;;;6281699;22;20018;-77
2022/05/28 08:14:52;;;;;;;12.45;2.40;;;13.20;99.90;;;;;;6309552;22;20018;-79
2022/05/28 08:17:18;;;;;;;9.85;2.33;;;13.10;99.90;;;;;;6281889;22;20015;-77
2022/05/28 08:19:44;;;;;;;11.07;3.00;;;13.10;99.90;;;;;;6281870;22;20017;-76
2022/05/28 08:24:53;;;;;;;12.88;2.90;;;13.20;99.90;;;;;;6309076;22;20015;-78
2022/05/28 08:27:19;;;;;;;12.43;1.88;;;13.30;99.90;;;;;;6309065;22;20514;-74
2022/05/28 08:29:45;;;;;;;11.40;2.33;;;13.40;99.90;;;;;;6281602;22;20011;-79
2022/05/28 08:32:12;;;;;;;10.48;2.40;;;13.50;99.90;;;;;;6281636;22;20011;-77
2022/05/28 08:34:38;;;;;;;12.55;2.38;;;13.50;99.90;;;;;;6309378;22;20023;-78
2022/05/28 08:37:04;;;;;;;13.48;4.05;;;13.30;99.90;;;;;;6281608;22;20095;-78
2022/05/28 08:39:30;;;;;;;14.90;2.53;;;13.40;99.90;;;;;;6309454;22;20003;-79
2022/05/28 08:41:59;;;;;;;9.43;2.47;;;13.40;99.90;;;;;;6308848;22;20014;-78
2022/05/28 08:44:32;;;;;;;13.52;1.90;;;13.40;99.90;;;;;;6310193;22;20306;-78
2022/05/28 08:47:07;;;;;;;17.60;2.10;;;13.40;99.90;;;;;;6256087;22;20073;-79
2022/05/28 08:49:34;;;;;;;12.95;1.85;;;13.30;99.90;;;;;;6281493;22;20014;-79
2022/05/28 08:52:12;;;;;;;12.15;2.13;;;13.20;99.90;;;;;;6308998;22;20003;-78
2022/05/28 08:54:56;;;;;;;13.88;2.15;;;13.30;99.90;;;;;;6281390;22;20007;-77
2022/05/28 08:57:29;;;;;;;13.05;2.20;;;13.30;99.90;;;;;;6281566;22;20022;-75
2022/05/28 08:59:59;;;;;;;9.70;2.08;;;13.40;99.90;;;;;;6255757;22;20015;-77
2022/05/28 09:02:37;;;;;;;17.50;2.72;;;13.40;99.90;;;;;;6281090;22;20019;-79
2022/05/28 09:05:04;;;;;;;14.82;2.65;;;13.30;99.90;;;;;;6282027;22;20022;-80
2022/05/28 09:07:30;;;;;;;13.48;1.83;;;13.30;99.90;;;;;;6255875;22;20019;-81
2022/05/28 09:09:57;;;;;;;11.35;2.33;;;13.60;99.90;;;;;;6281645;22;20019;-76
2022/05/28 09:12:36;;;;;;;13.38;2.20;;;13.80;99.90;;;;;;6308789;22;20012;-79
2022/05/28 09:15:02;;;;;;;8.63;1.75;;;14.00;99.90;;;;;;6309232;22;20345;-77
2022/05/28 09:17:32;;;;;;;11.27;1.70;;;14.10;99.90;;;;;;6281089;22;20011;-75
2022/05/28 09:20:12;;;;;;;9.07;1.73;;;14.30;99.90;;;;;;6281127;22;20400;-77
2022/05/28 09:22:38;;;;;;;9.70;2.20;;;14.40;99.90;;;;;;6281107;22;20060;-76
2022/05/28 09:25:05;;;;;;;10.80;1.90;;;14.30;99.90;;;;;;6308326;22;20019;-75
2022/05/28 09:27:59;;;;;;;11.32;2.00;;;14.00;99.90;;;;;;6308439;22;20375;-79
2022/05/28 09:30:52;;;;;;;10.25;1.98;;;13.60;99.90;;;;;;6294079;22;20034;-80
2022/05/28 09:33:23;;;;;;;12.73;2.13;;;13.60;99.90;;;;;;6280958;22;20011;-78
2022/05/28 09:36:09;;;;;;;9.77;2.08;;;13.70;99.90;;;;;;6280976;22;20437;-78
2022/05/28 09:38:47;;;;;;;;;;;14.10;99.90;;;;;;6280509;22;20060;-77
2022/05/28 09:41:47;;;;;;;14.23;2.55;;;14.30;99.90;;;;;;6280984;22;19941;-78
2022/05/28 09:44:38;;;;;;;8.82;1.95;;;14.20;99.90;;;;;;6280802;22;20011;-77
2022/05/28 09:47:13;;;;;;;12.52;1.90;;;13.90;99.90;;;;;;6280903;22;20089;-78
2022/05/28 09:49:54;;;;;;;11.77;2.20;;;13.80;99.90;;;;;;6255535;22;20064;-80
2022/05/28 09:52:24;;;;;;;7.15;1.60;;;13.90;99.90;;;;;;6280853;22;20014;-80
2022/05/28 09:54:50;;;;;;;9.70;2.03;;;14.20;99.90;;;;;;6280808;22;20087;-78
2022/05/28 09:57:29;;;;;;;8.93;1.50;;;14.50;99.90;;;;;;6308092;22;20038;-79
2022/05/28 10:00:03;;;;;;;7.75;1.15;;;14.60;99.90;;;;;;6280741;22;20371;-79
2022/05/28 10:02:33;;;;;;;9.55;1.75;;;14.50;99.90;;;;;;6280723;22;20074;-79
2022/05/28 10:05:16;;;;;;;17.10;2.70;;;14.30;99.90;;;;;;6281107;22;20007;-78
2022/05/28 10:07:46;;;;;;;12.23;1.70;;;14.20;99.90;;;;;;6308371;22;20087;-78
2022/05/28 10:10:14;;;;;;;10.73;1.73;;;14.20;99.90;;;;;;6280726;22;20018;-78
2022/05/28 10:12:40;;;;;;;12.02;2.00;;;14.10;99.90;;;;;;6280632;22;20049;-81
2022/05/28 10:15:16;;;;;;;9.70;2.22;;;14.00;99.90;;;;;;6281113;22;20449;-80
2022/05/28 10:17:43;;;;;;;14.90;2.33;;;13.80;99.90;;;;;;6280758;22;20053;-79
2022/05/28 10:20:18;;;;;;;12.18;1.88;;;13.50;99.90;;;;;;6308377;22;20053;-78
2022/05/28 10:22:46;;;;;;;11.82;1.77;;;13.50;99.90;;;;;;6254931;22;20015;-80
2022/05/28 10:25:51;;;;;;;9.82;2.33;;;13.60;99.90;;;;;;6254850;22;20007;-77
2022/05/28 10:28:48;;;;;;;13.30;2.30;;;14.00;99.90;;;;;;6280718;22;20019;-79
2022/05/28 10:31:28;;;;;;;12.13;2.30;;;14.30;99.90;;;;;;6280491;22;20045;-78
2022/05/28 10:33:54;;;;;;;12.90;2.33;;;14.50;99.90;;;;;;6308407;22;20023;-75
2022/05/28 10:36:25;;;;;;;9.50;1.60;;;14.60;99.90;;;;;;6310210;22;20340;-75
2022/05/28 10:38:50;;;;;;;9.98;1.77;;;14.70;99.90;;;;;;6311436;22;20003;-77
2022/05/28 10:41:21;;;;;;;7.68;2.00;;;14.70;99.90;;;;;;6256876;22;20318;-75
2022/05/28 10:43:48;;;;;;;14.50;1.80;;;14.50;99.90;;;;;;6284169;22;20011;-75
2022/05/28 10:46:40;;;;;;;9.27;1.60;;;14.30;99.90;;;;;;6282328;22;20013;-76
2022/05/28 10:49:27;;;;;;;13.98;2.45;;;14.10;99.90;;;;;;6309554;22;20027;-75
2022/05/28 10:52:22;;;;;;;10.35;1.60;;;14.00;99.90;;;;;;6280997;22;20018;-77
2022/05/28 10:55:02;;;;;;;11.82;1.95;;;13.90;99.90;;;;;;6280394;22;20026;-76
2022/05/28 10:57:38;;;;;;;11.85;2.40;;;13.80;99.90;;;;;;6280525;22;20387;-76
2022/05/28 11:00:13;;;;;;;10.35;1.98;;;14.00;99.90;;;;;;6308083;22;20012;-76
2022/05/28 11:02:47;;;;;;;10.88;2.25;;;14.60;99.90;;;;;;6279943;22;20022;-79
2022/05/28 11:06:05;;;;;;;10.53;1.93;;;14.80;99.90;;;;;;6307457;22;20052;-77
2022/05/28 11:08:51;;;;;;;16.67;3.03;;;14.60;99.90;;;;;;6210065;22;20117;-76
2022/05/28 11:11:17;;;;;;;8.95;1.60;;;14.40;99.90;;;;;;6254415;22;20378;-77
2022/05/28 11:13:51;;;;;;;12.75;2.33;;;14.30;99.90;;;;;;6280169;22;20050;-76
2022/05/28 11:16:19;;;;;;;17.10;2.95;;;14.30;99.90;;;;;;6255012;22;20019;-75
2022/05/28 11:19:00;;;;;;;10.75;1.95;;;14.80;99.90;;;;;;6309495;22;20007;-76
2022/05/28 11:21:41;;;;;;;12.73;2.00;;;15.10;99.90;;;;;;6282129;22;20022;-76
2022/05/28 11:24:28;;;;;;;10.98;2.38;;;15.10;99.90;;;;;;6309454;22;20018;-76
2022/05/28 11:27:31;;;;;;;10.40;1.73;;;15.00;99.90;;;;;;6282119;22;20016;-79
2022/05/28 11:30:06;;;;;;;6.28;1.58;;;14.90;99.90;;;;;;6256497;22;20505;-76
2022/05/28 11:33:00;;;;;;;9.27;1.55;;;15.10;99.90;;;;;;6281998;22;20023;-78
2022/05/28 11:35:35;;;;;;;8.05;2.15;;;15.50;99.90;;;;;;6281253;22;20416;-77
2022/05/28 11:38:21;;;;;;;8.90;1.50;;;15.60;99.90;;;;;;6283132;22;20015;-81
2022/05/28 11:41:15;;;;;;;7.72;1.40;;;15.90;99.90;;;;;;6284134;22;20015;-78
2022/05/28 11:43:49;;;;;;;8.02;1.20;;;16.20;99.90;;;;;;6309262;22;20022;-79
2022/05/28 11:46:39;;;;;;;8.43;1.40;;;16.10;99.90;;;;;;6255917;22;20368;-79
2022/05/28 11:52:10;;;;;;;11.57;1.85;;;15.30;99.90;;;;;;6281882;22;20050;-78
2022/05/28 11:54:49;;;;;;;11.07;1.88;;;15.10;99.90;;;;;;6281977;22;20026;-78
2022/05/28 11:57:40;;;;;;;12.77;2.13;;;15.00;99.90;;;;;;6309161;22;20034;-75
2022/05/28 12:00:08;;;;;;;10.27;1.90;;;14.80;99.90;;;;;;6309276;22;20011;-78
2022/05/28 12:02:41;;;;;;;12.63;2.20;;;14.60;99.90;;;;;;6281729;22;20367;-77
2022/05/28 12:05:22;;;;;;;10.90;2.45;;;14.50;99.90;;;;;;6282776;22;20011;-78
2022/05/28 12:08:02;;;;;;;17.30;2.22;;;14.40;99.90;;;;;;6281838;22;20016;-79
2022/05/28 12:10:38;;;;;;;10.93;2.00;;;14.70;99.90;;;;;;6281740;22;20007;-78
2022/05/28 12:13:05;;;;;;;10.20;1.63;;;14.80;99.90;;;;;;6281806;22;20014;-76
2022/05/28 12:15:34;;;;;;;16.55;2.13;;;14.70;99.90;;;;;;6281731;22;20083;-77
2022/05/28 12:18:11;;;;;;;10.27;1.70;;;14.70;99.90;;;;;;6309344;22;20042;-77
2022/05/28 12:20:51;;;;;;;13.02;2.45;;;14.60;99.90;;;;;;6281627;22;20099;-78
2022/05/28 12:23:27;;;;;;;12.05;1.80;;;14.70;99.90;;;;;;6309507;22;20015;-78
2022/05/28 12:25:52;;;;;;;9.93;1.85;;;14.70;99.90;;;;;;6281663;22;20008;-77
2022/05/28 12:28:31;;;;;;;9.25;1.60;;;14.70;99.90;;;;;;6309015;22;20018;-77
2022/05/28 12:31:02;;;;;;;11.35;1.70;;;14.70;99.90;;;;;;6308877;22;20007;-77
2022/05/28 12:33:27;;;;;;;11.82;1.98;;;14.70;99.90;;;;;;6309312;22;20011;-76
2022/05/28 12:36:00;;;;;;;6.93;1.95;;;14.40;99.90;;;;;;6281666;22;20021;-76
2022/05/28 12:38:45;;;;;;;15.45;2.20;;;14.50;99.90;;;;;;6308880;22;20011;-77
2022/05/28 12:41:26;;;;;;;13.48;1.85;;;14.40;99.90;;;;;;6281463;22;20015;-76
2022/05/28 12:43:56;;;;;;;16.40;2.50;;;14.20;99.90;;;;;;6281493;22;20038;-77
2022/05/28 12:46:39;;;;;;;10.70;2.13;;;14.00;99.90;;;;;;6281562;22;20046;-77
2022/05/28 12:49:11;;;;;;;9.45;2.05;;;14.00;99.90;;;;;;6281475;22;20017;-78
2022/05/28 12:51:55;;;;;;;13.88;2.80;;;14.00;99.90;;;;;;6281321;22;20437;-76
2022/05/28 12:54:30;;;;;;;10.48;1.75;;;14.10;99.90;;;;;;6281443;22;20015;-79
2022/05/28 12:57:27;;;;;;;15.82;2.20;;;14.10;99.90;;;;;;6281388;22;20383;-77
2022/05/28 13:00:12;;;;;;;9.77;1.52;;;14.00;99.90;;;;;;6281421;22;20015;-76
2022/05/28 13:02:44;;;;;;;9.43;1.85;;;14.10;99.90;;;;;;6281086;22;20085;-77
2022/05/28 13:05:16;;;;;;;9.27;1.88;;;14.20;99.90;;;;;;6281189;22;20007;-78
2022/05/28 13:08:04;;;;;;;11.35;2.22;;;14.30;99.90;;;;;;6309013;22;20011;-77
2022/05/28 13:10:30;;;;;;;12.27;2.50;;;14.10;99.90;;;;;;6281076;22;20011;-78
2022/05/28 13:13:17;;;;;;;15.88;3.58;;;14.00;99.90;;;;;;6281135;22;20015;-79
2022/05/28 13:16:16;;;;;;;12.05;2.78;;;14.10;99.90;;;;;;6281165;22;20011;-76
2022/05/28 13:19:04;;;;;;;9.88;2.63;;;14.10;99.90;;;;;;6281233;22;20015;-76
2022/05/28 13:21:46;;;;;;;15.55;2.65;;;14.40;99.90;;;;;;6281112;22;20015;-78
2022/05/28 13:24:30;;;;;;;11.10;2.17;;;14.80;99.90;;;;;;6255687;22;20302;-74
2022/05/28 13:27:05;;;;;;;9.75;1.60;;;15.30;99.90;;;;;;6281420;22;20050;-77
2022/05/28 13:29:36;;;;;;;10.27;2.00;;;15.70;99.90;;;;;;6281541;22;20065;-77
2022/05/28 13:32:25;;;;;;;9.70;1.48;;;15.70;99.90;;;;;;6280964;22;20270;-79
2022/05/28 13:35:04;;;;;;;7.25;1.35;;;15.50;99.90;;;;;;6281063;22;20086;-78
2022/05/28 13:37:29;;;;;;;7.13;1.40;;;15.40;99.90;;;;;;6255265;22;20015;-77
2022/05/28 13:39:56;;;;;;;8.43;1.00;;;15.50;99.90;;;;;;6308006;22;20023;-77
2022/05/28 13:42:24;;;;;;;13.77;2.90;;;15.80;99.90;;;;;;6308137;22;20026;-78
2022/05/28 13:44:52;;;;;;;12.57;2.60;;;16.00;99.90;;;;;;6280709;22;20021;-79
2022/05/28 13:47:24;;;;;;;11.95;1.88;;;15.90;99.90;;;;;;6308348;22;20007;-77
2022/05/28 13:49:53;;;;;;;8.25;1.40;;;16.20;99.90;;;;;;6281543;22;20011;-76
2022/05/28 13:52:20;;;;;;;10.13;1.48;;;16.30;99.90;;;;;;6280504;22;20445;-78
2022/05/28 13:54:58;;;;;;;5.20;1.00;;;16.60;99.90;;;;;;6281138;22;20196;-78
2022/05/28 13:57:37;;;;;;;8.25;1.30;;;16.60;99.90;;;;;;6280766;22;20015;-78
2022/05/28 14:00:31;;;;;;;6.88;1.35;;;16.60;99.90;;;;;;6308432;22;20011;-77
2022/05/28 14:02:58;;;;;;;8.25;1.48;;;16.60;99.90;;;;;;6300572;22;20574;-77
2022/05/28 14:05:29;;;;;;;12.07;1.40;;;16.70;99.90;;;;;;6307879;22;20003;-76
2022/05/28 14:07:56;;;;;;;8.40;1.40;;;16.30;99.90;;;;;;6280679;22;20011;-78
2022/05/28 14:10:22;;;;;;;8.27;1.63;;;16.40;99.90;;;;;;6280664;22;20315;-78
2022/05/28 14:12:50;;;;;;;12.90;1.90;;;16.50;99.90;;;;;;6280452;22;20015;-76
2022/05/28 14:15:19;;;;;;;8.73;1.45;;;16.60;99.90;;;;;;6254905;22;20455;-77
2022/05/28 14:17:44;;;;;;;8.93;1.67;;;16.80;99.90;;;;;;6280527;22;20015;-77
2022/05/28 14:20:27;;;;;;;9.73;1.70;;;16.90;99.90;;;;;;6308163;22;20011;-79
2022/05/28 14:22:53;;;;;;;8.23;1.50;;;16.50;99.90;;;;;;6280670;22;20078;-78
2022/05/28 14:25:30;;;;;;;6.63;1.42;;;16.50;99.90;;;;;;6281486;22;20039;-77
2022/05/28 14:28:01;;;;;;;8.57;1.83;;;16.30;99.90;;;;;;6308633;22;20015;-77
2022/05/28 14:30:32;;;;;;;8.18;1.58;;;16.10;99.90;;;;;;6280241;22;20018;-78
2022/05/28 14:32:57;;;;;;;5.30;1.20;;;15.90;99.90;;;;;;6254992;22;20053;-75
2022/05/28 14:35:36;;;;;;;5.82;1.10;;;16.20;99.90;;;;;;6280424;22;20019;-80
2022/05/28 14:38:08;;;;;;;6.32;1.50;;;16.20;99.90;;;;;;6280544;22;20045;-79
2022/05/28 14:40:36;;;;;;;6.20;1.10;;;16.10;99.90;;;;;;6280225;22;20018;-78
2022/05/28 14:43:04;;;;;;;9.48;1.27;;;15.70;99.90;;;;;;6280287;22;20015;-78
2022/05/28 14:45:34;;;;;;;7.63;1.23;;;15.50;99.90;;;;;;6280326;22;20315;-76
2022/05/28 14:48:03;;;;;;;8.77;2.00;;;15.30;99.90;;;;;;6280320;22;20019;-78
2022/05/28 14:50:51;;;;;;;9.25;1.65;;;15.30;99.90;;;;;;6307462;22;20437;-76
2022/05/28 14:53:36;;;;;;;10.07;1.60;;;15.20;99.90;;;;;;6280778;22;20011;-78
2022/05/28 14:56:12;;;;;;;8.70;1.90;;;15.10;99.90;;;;;;6307907;22;20011;-76
2022/05/28 14:58:47;;;;;;;7.28;1.40;;;15.10;99.90;;;;;;6280215;22;20019;-78
2022/05/28 15:01:22;;;;;;;8.88;1.25;;;15.10;99.90;;;;;;6254697;22;20430;-79
2022/05/28 15:03:48;;;;;;;9.75;1.67;;;15.20;99.90;;;;;;6280742;22;20129;-81
2022/05/28 15:06:27;;;;;;;7.80;1.23;;;15.20;99.90;;;;;;6280181;22;20043;-79
2022/05/28 15:08:58;;;;;;;11.48;1.58;;;15.30;99.90;;;;;;6254591;22;20014;-79
2022/05/28 15:11:31;;;;;;;9.70;1.70;;;15.60;99.90;;;;;;6280159;22;20011;-79
2022/05/28 15:14:23;;;;;;;6.75;1.50;;;16.00;99.90;;;;;;6280558;22;20388;-79
2022/05/28 15:16:49;;;;;;;6.80;1.88;;;15.50;99.90;;;;;;6308903;22;20074;-76
2022/05/28 15:19:14;;;;;;;7.30;1.30;;;15.30;99.90;;;;;;6307404;22;20049;-78
2022/05/28 15:21:40;;;;;;;8.02;1.20;;;15.10;99.90;;;;;;6280095;22;20014;-79
2022/05/28 15:24:06;;;;;;;9.02;1.40;;;15.00;99.90;;;;;;6307777;22;20035;-79
2022/05/28 15:26:35;;;;;;;9.50;1.10;;;14.90;99.90;;;;;;6280122;22;20014;-77
2022/05/28 15:29:01;;;;;;;12.68;2.03;;;14.80;99.90;;;;;;6254383;22;20011;-79
2022/05/28 15:31:26;;;;;;;7.38;1.38;;;14.50;99.90;;;;;;6254684;22;20014;-78
2022/05/28 15:33:52;;;;;;;8.30;2.10;;;14.80;99.90;;;;;;6280023;22;20489;-80
2022/05/28 15:39:02;;;;;;;6.20;1.50;;;15.20;99.90;;;;;;6279949;22;20026;-79
2022/05/28 15:41:29;;;;;;;7.07;1.50;;;15.30;99.90;;;;;;6279861;22;20090;-77
2022/05/28 15:43:55;;;;;;;12.88;1.58;;;15.20;99.90;;;;;;6254566;22;20082;-78
2022/05/28 15:46:21;;;;;;;8.10;1.58;;;14.90;99.90;;;;;;6307503;22;20116;-79
2022/05/28 15:48:46;;;;;;;11.65;1.58;;;14.70;99.90;;;;;;6254448;22;20021;-78
2022/05/28 15:51:13;;;;;;;8.75;1.60;;;14.30;99.90;;;;;;6254303;22;20064;-76
2022/05/28 15:53:39;;;;;;;10.07;1.80;;;14.00;99.90;;;;;;6279948;22;20007;-77
2022/05/28 15:56:13;;;;;;;7.22;1.85;;;13.70;99.90;;;;;;6307273;22;20007;-76
2022/05/28 15:58:40;;;;;;;7.30;1.60;;;13.60;99.90;;;;;;6279990;22;20015;-77
2022/05/28 16:01:17;;;;;;;5.70;1.45;;;13.50;99.90;;;;;;6279703;22;20023;-77
2022/05/28 16:03:42;;;;;;;7.00;1.90;;;13.60;99.90;;;;;;6282687;22;20007;-77
2022/05/28 16:06:10;;;;;;;5.78;1.10;;;13.80;99.90;;;;;;6309314;22;20018;-77
2022/05/28 16:08:40;;;;;;;5.40;1.00;;;13.90;99.90;;;;;;6309056;22;20019;-75
2022/05/28 16:11:15;;;;;;;7.28;1.10;;;14.10;99.90;;;;;;6281721;22;20011;-77
2022/05/28 16:13:42;;;;;;;9.82;1.30;;;14.20;99.90;;;;;;6281885;22;20015;-75
2022/05/28 16:16:08;;;;;;;8.13;1.25;;;14.00;99.90;;;;;;6309491;22;20007;-76
2022/05/28 16:18:34;;;;;;;4.80;1.63;;;13.90;99.90;;;;;;6281803;22;20012;-77
2022/05/28 16:21:00;;;;;;;9.35;1.33;;;13.70;99.90;;;;;;6309407;22;20011;-83
2022/05/28 16:23:25;;;;;;;5.75;1.10;;;13.80;99.90;;;;;;6307906;22;20069;-76
2022/05/28 16:25:51;;;;;;;7.50;1.15;;;13.80;99.90;;;;;;6309826;22;20026;-80
2022/05/28 16:28:17;;;;;;;11.10;1.80;;;13.60;99.90;;;;;;6281727;22;20360;-81
2022/05/28 16:30:42;;;;;;;7.22;1.20;;;13.60;99.90;;;;;;6281858;22;20012;-75
2022/05/28 16:33:09;;;;;;;8.18;1.60;;;13.50;99.90;;;;;;6309223;22;20011;-77
2022/05/28 16:35:34;;;;;;;9.00;1.45;;;13.40;99.90;;;;;;6281720;22;20015;-75
2022/05/28 16:38:00;;;;;;;7.32;1.23;;;13.40;99.90;;;;;;6311803;22;20021;-75
2022/05/28 16:40:27;;;;;;;7.35;1.10;;;13.40;99.90;;;;;;6257806;22;20399;-75
2022/05/28 16:42:53;;;;;;;7.95;1.50;;;13.40;99.90;;;;;;6283302;22;20057;-75
2022/05/28 16:45:23;;;;;;;9.45;1.50;;;13.70;99.90;;;;;;6283632;22;20433;-76
2022/05/28 16:47:49;;;;;;;10.98;1.67;;;14.10;99.90;;;;;;6283458;22;20450;-76
2022/05/28 16:50:14;;;;;;;13.38;1.75;;;14.30;99.90;;;;;;6281898;22;20014;-78
2022/05/28 16:52:40;;;;;;;10.13;1.85;;;14.30;99.90;;;;;;6281305;22;20038;-76
2022/05/28 16:55:06;;;;;;;5.32;1.27;;;14.50;99.90;;;;;;6308618;22;20448;-77
2022/05/28 16:57:31;;;;;;;9.88;1.67;;;14.40;99.90;;;;;;6281271;22;20011;-77
2022/05/28 16:59:58;;;;;;;9.60;1.30;;;14.10;99.90;;;;;;6309046;22;20007;-76
2022/05/28 17:02:24;;;;;;;7.53;1.17;;;14.00;99.90;;;;;;6281103;22;20007;-77
2022/05/28 17:04:49;;;;;;;5.75;1.20;;;13.80;99.90;;;;;;6308824;22;20384;-76
2022/05/28 17:07:15;;;;;;;9.38;1.48;;;13.60;99.90;;;;;;6309009;22;20325;-76
2022/05/28 17:09:40;;;;;;;6.32;1.02;;;13.20;99.90;;;;;;6281347;22;20038;-75